Time;durP1;ratioP1;P1;durP2;ratioP2;P2;SDS_P1;SDS_P2;PMS_P1;PMS_P2;Temp;Humidity;BMP_temperature;BMP_pressure;BME280_temperature;BME280_humidity;BME280_pressure;Samples;Min_cycle;Max_cycle;Signal;HPM_P1;HPM_P2
2021/11/09 02:18:55;;;;;;;25.50;7.60;;;8.70;98.30;;;;;;5218705;22;20458;-81
2021/11/09 02:21:02;;;;;;;14.60;6.80;;;8.70;98.30;;;;;;5226969;22;20427;-81
2021/11/09 02:23:06;;;;;;;19.70;8.10;;;8.70;98.30;;;;;;5236173;22;20465;-81
2021/11/09 02:25:13;;;;;;;10.57;6.13;;;8.70;98.30;;;;;;5237362;22;20425;-80
2021/11/09 02:27:16;;;;;;;18.67;7.40;;;8.70;98.30;;;;;;5235444;22;20434;-80
2021/11/09 02:29:19;;;;;;;16.03;5.77;;;8.80;98.30;;;;;;5236831;22;20489;-80
2021/11/09 02:31:22;;;;;;;11.70;5.90;;;8.70;98.30;;;;;;5234976;22;20784;-80
2021/11/09 02:33:25;;;;;;;21.07;6.73;;;8.80;98.30;;;;;;5235203;22;20869;-80
2021/11/09 02:35:29;;;;;;;22.03;6.20;;;8.80;98.30;;;;;;5227865;22;20432;-80
2021/11/09 02:37:33;;;;;;;11.07;5.50;;;8.80;98.30;;;;;;5219111;22;20982;-79
2021/11/09 02:39:36;;;;;;;18.70;6.53;;;8.80;98.30;;;;;;5227529;22;20505;-79
2021/11/09 02:41:40;;;;;;;19.53;7.00;;;8.80;98.30;;;;;;5220230;22;20426;-79
2021/11/09 02:43:43;;;;;;;12.50;5.93;;;8.70;98.30;;;;;;5227702;22;20518;-79
2021/11/09 02:45:56;;;;;;;17.70;6.27;;;8.70;98.30;;;;;;5227629;22;20418;-79
2021/11/09 02:48:03;;;;;;;12.73;6.60;;;8.70;98.30;;;;;;5218717;22;20446;-79
2021/11/09 02:50:09;;;;;;;11.33;5.47;;;8.60;98.30;;;;;;5228047;22;20918;-79
2021/11/09 02:52:12;;;;;;;19.10;6.33;;;8.60;98.30;;;;;;5218537;22;20417;-80
2021/11/09 02:54:21;;;;;;;11.03;5.50;;;8.60;98.30;;;;;;5226945;22;20528;-80
2021/11/09 02:56:27;;;;;;;16.60;6.23;;;8.60;98.30;;;;;;5227195;22;20422;-80
2021/11/09 02:58:42;;;;;;;11.83;6.00;;;8.60;98.30;;;;;;5226111;22;20498;-80
2021/11/09 03:00:57;;;;;;;16.30;6.10;;;8.60;98.30;;;;;;5226932;22;20414;-80
2021/11/09 03:03:04;;;;;;;11.40;5.77;;;8.60;98.30;;;;;;5226780;22;20500;-80
2021/11/09 03:05:14;;;;;;;20.70;7.60;;;8.60;98.30;;;;;;5219022;22;20437;-80
2021/11/09 03:07:27;;;;;;;17.63;5.87;;;8.60;98.30;;;;;;5226760;22;20445;-80
2021/11/09 03:09:41;;;;;;;22.57;6.23;;;8.60;98.30;;;;;;5227097;22;20419;-80
2021/11/09 03:11:50;;;;;;;14.83;7.20;;;8.50;98.30;;;;;;5227461;22;20414;-80
2021/11/09 03:13:54;;;;;;;22.80;6.13;;;8.60;98.30;;;;;;5227563;22;20466;-80
2021/11/09 03:16:02;;;;;;;12.57;6.50;;;8.60;98.30;;;;;;5226285;22;20426;-80
2021/11/09 03:18:08;;;;;;;15.97;7.00;;;8.60;98.30;;;;;;5218150;22;20497;-80
2021/11/09 03:20:18;;;;;;;19.07;6.77;;;8.60;98.30;;;;;;5226625;22;20415;-80
2021/11/09 03:45:52;;;;;;;22.77;6.73;;;8.50;98.30;;;;;;5226432;22;20733;-80
2021/11/09 03:48:03;;;;;;;16.60;5.90;;;8.50;98.30;;;;;;5225657;22;20443;-80
2021/11/09 03:50:09;;;;;;;15.57;5.90;;;8.50;98.30;;;;;;5226080;22;20425;-80
2021/11/09 03:52:18;;;;;;;23.17;6.57;;;8.50;98.30;;;;;;5225820;22;20510;-80
2021/11/09 03:54:27;;;;;;;21.50;6.27;;;8.50;98.30;;;;;;5226196;22;20424;-80
2021/11/09 03:56:37;;;;;;;21.70;6.40;;;8.50;98.30;;;;;;5226493;22;20410;-80
2021/11/09 03:58:43;;;;;;;15.77;6.70;;;8.50;98.30;;;;;;5217826;22;20449;-79
2021/11/09 04:00:49;;;;;;;13.90;6.10;;;8.50;98.30;;;;;;5218313;22;20434;-79
2021/11/09 04:02:58;;;;;;;14.77;6.10;;;8.60;98.30;;;;;;5218203;22;20439;-79
2021/11/09 04:05:04;;;;;;;21.70;7.23;;;8.60;98.30;;;;;;5227275;22;20418;-80
2021/11/09 04:07:10;;;;;;;17.50;6.50;;;8.60;98.30;;;;;;5226302;22;20441;-79
2021/11/09 04:09:18;;;;;;;13.53;6.83;;;8.50;98.30;;;;;;5226214;22;20419;-79
2021/11/09 04:11:45;;;;;;;19.47;9.00;;;8.50;98.30;;;;;;5217308;22;20756;-79
2021/11/09 04:13:54;;;;;;;15.43;6.30;;;8.50;98.30;;;;;;5225574;22;20468;-79
2021/11/09 04:20:53;;;;;;;20.53;6.47;;;8.50;98.30;;;;;;5203530;22;20965;-79
2021/11/09 04:25:47;;;;;;;14.13;6.37;;;8.50;98.30;;;;;;5212235;22;20429;-79
2021/11/09 04:28:02;;;;;;;15.47;7.40;;;8.50;98.30;;;;;;5226176;22;20457;-79
2021/11/09 04:30:26;;;;;;;14.47;7.87;;;8.50;98.30;;;;;;5226452;22;20429;-79
2021/11/09 04:32:50;;;;;;;18.00;8.90;;;8.50;98.30;;;;;;5226121;22;20426;-79
2021/11/09 04:35:34;;;;;;;22.53;7.17;;;8.50;98.30;;;;;;5226520;22;20407;-79
2021/11/09 04:50:03;;;;;;;25.90;10.70;;;8.50;98.30;;;;;;5226553;22;20460;-80
2021/11/09 05:01:39;;;;;;;20.67;9.40;;;8.50;98.30;;;;;;5225609;22;21119;-80
2021/11/09 05:10:34;;;;;;;18.80;10.47;;;8.50;98.30;;;;;;5219242;22;20453;-81
2021/11/09 05:12:37;;;;;;;19.83;10.00;;;8.40;98.30;;;;;;5219232;22;20422;-81
2021/11/09 05:14:40;;;;;;;28.73;10.60;;;8.40;98.30;;;;;;5219408;22;20446;-81
2021/11/09 05:16:45;;;;;;;18.10;9.80;;;8.50;98.30;;;;;;5227885;22;20840;-81
2021/11/09 05:18:48;;;;;;;19.13;12.10;;;8.40;98.30;;;;;;5227751;22;20947;-81
2021/11/09 05:20:51;;;;;;;20.90;11.63;;;8.40;98.30;;;;;;5219330;22;20433;-81
2021/11/09 05:22:54;;;;;;;22.33;11.07;;;8.40;98.30;;;;;;5219005;22;20751;-81
2021/11/09 05:24:58;;;;;;;19.67;11.90;;;8.40;98.30;;;;;;5219076;22;20458;-82
2021/11/09 05:27:02;;;;;;;23.07;11.67;;;8.40;98.30;;;;;;5227608;22;20953;-81
2021/11/09 05:29:05;;;;;;;24.87;10.70;;;8.40;98.30;;;;;;5219506;22;20433;-82
2021/11/09 05:31:08;;;;;;;24.83;12.20;;;8.40;98.30;;;;;;5219513;22;21041;-81
2021/11/09 05:33:13;;;;;;;21.67;10.57;;;8.30;98.30;;;;;;5227562;22;20426;-81
2021/11/09 05:35:16;;;;;;;24.23;11.63;;;8.30;98.30;;;;;;5226230;22;20453;-81
2021/11/09 05:37:22;;;;;;;19.07;11.73;;;8.30;98.30;;;;;;5225780;22;20545;-81
2021/11/09 05:39:32;;;;;;;16.67;10.63;;;8.30;98.30;;;;;;5218295;22;20428;-81
2021/11/09 05:41:38;;;;;;;26.43;18.50;;;8.30;98.30;;;;;;5227367;22;20432;-81
2021/11/09 05:43:41;;;;;;;85.10;42.90;;;8.30;98.30;;;;;;5227633;22;20446;-81
2021/11/09 05:45:44;;;;;;;20.03;12.17;;;8.40;98.30;;;;;;5226989;22;20524;-81
2021/11/09 05:47:47;;;;;;;24.43;11.77;;;8.40;98.30;;;;;;5217015;22;20449;-81
2021/11/09 05:49:51;;;;;;;15.63;10.73;;;8.40;98.30;;;;;;5217094;22;20426;-80
2021/11/09 05:51:54;;;;;;;23.17;10.70;;;8.40;98.30;;;;;;5217552;22;20472;-80
2021/11/09 05:53:57;;;;;;;20.00;11.03;;;8.30;98.30;;;;;;5218280;22;20497;-81
2021/11/09 05:56:00;;;;;;;15.73;9.27;;;8.30;98.30;;;;;;5218661;22;20453;-80
2021/11/09 05:58:03;;;;;;;21.43;8.97;;;8.30;98.30;;;;;;5218019;22;20513;-80
2021/11/09 06:00:08;;;;;;;23.37;10.07;;;8.30;98.30;;;;;;5218427;22;20430;-81
2021/11/09 06:02:12;;;;;;;17.93;10.20;;;8.30;98.30;;;;;;5226526;22;20500;-81
2021/11/09 06:04:15;;;;;;;17.33;10.30;;;8.30;98.30;;;;;;5218373;22;20961;-81
2021/11/09 06:06:20;;;;;;;17.80;9.80;;;8.30;98.30;;;;;;5227026;22;20497;-80
2021/11/09 06:08:23;;;;;;;17.50;10.40;;;8.40;98.30;;;;;;5218060;22;20537;-81
2021/11/09 06:10:26;;;;;;;17.37;10.87;;;8.40;98.30;;;;;;5218843;22;20982;-80
2021/11/09 06:12:29;;;;;;;18.27;8.57;;;8.40;98.30;;;;;;5218521;22;20456;-81
2021/11/09 06:14:32;;;;;;;15.00;9.40;;;8.40;98.30;;;;;;5218136;22;20432;-81
2021/11/09 06:16:35;;;;;;;12.13;9.70;;;8.30;98.30;;;;;;5218418;22;20932;-81
2021/11/09 06:18:38;;;;;;;16.67;11.70;;;8.30;98.30;;;;;;5218370;22;20456;-81
2021/11/09 06:20:41;;;;;;;14.80;9.80;;;8.30;98.30;;;;;;5218490;22;20463;-80
2021/11/09 06:22:46;;;;;;;18.57;11.17;;;8.40;98.30;;;;;;5218616;22;20439;-81
2021/11/09 06:24:49;;;;;;;13.30;8.70;;;8.40;98.30;;;;;;5226958;22;20792;-80
2021/11/09 06:26:53;;;;;;;16.70;9.70;;;8.40;98.30;;;;;;5217985;22;20439;-81
2021/11/09 06:28:58;;;;;;;12.97;9.50;;;8.40;98.30;;;;;;5218304;22;20458;-80
2021/11/09 06:31:01;;;;;;;16.43;10.30;;;8.40;98.30;;;;;;5218861;22;21152;-80
2021/11/09 06:33:04;;;;;;;16.07;9.70;;;8.40;98.30;;;;;;5218011;22;20497;-80
2021/11/09 06:35:08;;;;;;;16.40;10.60;;;8.40;98.30;;;;;;5217632;22;20508;-80
2021/11/09 06:37:11;;;;;;;22.17;10.77;;;8.40;98.30;;;;;;5217517;22;20446;-80
2021/11/09 06:39:16;;;;;;;15.83;10.80;;;8.50;98.30;;;;;;5218380;22;20984;-81
2021/11/09 06:41:19;;;;;;;14.83;10.27;;;8.50;98.30;;;;;;5218009;22;20426;-80
2021/11/09 06:43:22;;;;;;;19.27;11.20;;;8.40;98.30;;;;;;5217985;22;20433;-80
2021/11/09 06:45:25;;;;;;;16.33;11.00;;;8.40;98.30;;;;;;5218327;22;20449;-81
2021/11/09 06:47:28;;;;;;;19.40;12.17;;;8.40;98.30;;;;;;5223258;22;20521;-80
2021/11/09 06:49:31;;;;;;;16.77;10.33;;;8.50;98.30;;;;;;5225867;22;20428;-81
2021/11/09 06:51:34;;;;;;;22.90;11.53;;;8.50;98.30;;;;;;5234693;22;20426;-81
2021/11/09 06:53:37;;;;;;;18.17;11.97;;;8.50;98.30;;;;;;5225774;22;20815;-80
2021/11/09 06:55:42;;;;;;;18.53;12.73;;;8.60;98.30;;;;;;5235273;22;20418;-80
2021/11/09 06:57:46;;;;;;;16.00;10.70;;;8.60;98.30;;;;;;5225409;22;20480;-80
2021/11/09 06:59:49;;;;;;;23.17;11.50;;;8.50;98.30;;;;;;5225121;22;20431;-81
2021/11/09 07:01:52;;;;;;;20.03;11.57;;;8.60;98.30;;;;;;5229924;22;20921;-80
2021/11/09 07:03:55;;;;;;;24.37;13.13;;;8.60;98.30;;;;;;5218650;22;20427;-80
2021/11/09 07:05:58;;;;;;;20.10;12.30;;;8.60;98.30;;;;;;5218587;22;20442;-80
2021/11/09 07:08:01;;;;;;;16.93;11.50;;;8.60;98.30;;;;;;5217999;22;20517;-81
2021/11/09 07:10:05;;;;;;;19.87;10.20;;;8.60;98.30;;;;;;5226783;22;20430;-81
2021/11/09 07:12:10;;;;;;;17.47;9.93;;;8.60;98.30;;;;;;5218252;22;20428;-81
2021/11/09 07:14:13;;;;;;;19.70;10.13;;;8.60;98.30;;;;;;5226735;22;20424;-81
2021/11/09 07:16:16;;;;;;;16.97;10.50;;;8.60;98.30;;;;;;5217821;22;20507;-81
2021/11/09 07:18:20;;;;;;;20.27;11.87;;;8.60;98.30;;;;;;5217559;22;20461;-81
2021/11/09 07:20:23;;;;;;;18.27;11.47;;;8.60;98.30;;;;;;5218216;22;20456;-81
2021/11/09 07:22:26;;;;;;;14.13;9.57;;;8.60;98.30;;;;;;5218000;22;20505;-81
2021/11/09 07:24:30;;;;;;;20.50;11.20;;;8.60;98.30;;;;;;5226194;22;21155;-81
2021/11/09 07:26:34;;;;;;;12.97;9.77;;;8.70;98.30;;;;;;5217562;22;20857;-81
2021/11/09 07:28:38;;;;;;;14.67;10.63;;;8.70;98.30;;;;;;5226277;22;20467;-81
2021/11/09 07:30:43;;;;;;;18.90;10.00;;;8.80;98.30;;;;;;5218027;22;20945;-81
2021/11/09 07:32:46;;;;;;;16.50;9.80;;;8.80;98.30;;;;;;5226520;22;21092;-81
2021/11/09 07:34:49;;;;;;;16.33;10.90;;;8.80;98.30;;;;;;5226570;22;21168;-80
2021/11/09 07:36:52;;;;;;;16.93;11.10;;;8.90;98.30;;;;;;5217784;22;20423;-81
2021/11/09 07:38:58;;;;;;;12.77;9.50;;;9.00;98.30;;;;;;5226398;22;20914;-81
2021/11/09 07:41:01;;;;;;;14.00;10.63;;;9.10;98.30;;;;;;5217735;22;20510;-80
2021/11/09 07:43:04;;;;;;;16.70;10.10;;;9.20;98.30;;;;;;5217816;22;20487;-81
2021/11/09 07:45:08;;;;;;;17.80;11.00;;;9.20;98.30;;;;;;5226244;22;20497;-80
2021/11/09 07:47:12;;;;;;;21.27;10.70;;;9.30;98.30;;;;;;5225850;22;20494;-80
2021/11/09 07:49:15;;;;;;;21.00;11.90;;;9.30;98.30;;;;;;5225998;22;20510;-81
2021/11/09 07:51:18;;;;;;;21.80;10.93;;;9.20;98.30;;;;;;5217718;22;20428;-80
2021/11/09 07:53:22;;;;;;;16.10;11.03;;;9.30;98.30;;;;;;5217700;22;20465;-81
2021/11/09 07:55:26;;;;;;;15.20;11.20;;;9.40;98.30;;;;;;5217824;22;20802;-81
2021/11/09 07:57:34;;;;;;;17.23;12.40;;;9.50;98.30;;;;;;5217196;22;20523;-81
2021/11/09 07:59:41;;;;;;;18.90;10.20;;;9.50;98.30;;;;;;5217895;22;20411;-81
2021/11/09 08:01:59;;;;;;;15.07;10.97;;;9.50;98.30;;;;;;5217234;22;20422;-80
2021/11/09 08:04:06;;;;;;;15.57;10.30;;;9.60;98.30;;;;;;5226323;22;20412;-81
2021/11/09 08:06:16;;;;;;;15.30;9.83;;;9.70;98.30;;;;;;5217662;22;20450;-81
2021/11/09 08:08:24;;;;;;;15.73;11.07;;;9.80;98.30;;;;;;5217796;22;20818;-81
2021/11/09 08:10:27;;;;;;;18.37;9.20;;;9.80;98.30;;;;;;5217749;22;20489;-81
2021/11/09 08:12:30;;;;;;;16.93;8.87;;;9.90;98.30;;;;;;5226021;22;20524;-80
2021/11/09 08:14:33;;;;;;;14.33;10.03;;;9.90;98.30;;;;;;5226061;22;20740;-81
2021/11/09 08:16:41;;;;;;;16.20;9.83;;;10.00;98.30;;;;;;5217552;22;20405;-81
2021/11/09 08:18:46;;;;;;;15.00;10.30;;;10.10;98.30;;;;;;5226226;22;20427;-80
2021/11/09 08:20:49;;;;;;;18.20;10.13;;;10.10;98.30;;;;;;5217460;22;20460;-80
2021/11/09 08:22:52;;;;;;;15.20;9.93;;;10.10;98.30;;;;;;5217495;22;20488;-81
2021/11/09 08:24:54;;;;;;;15.03;9.57;;;10.30;98.30;;;;;;5225941;22;20457;-80
2021/11/09 08:26:59;;;;;;;16.97;10.17;;;10.30;98.30;;;;;;5216690;22;20533;-80
2021/11/09 08:29:04;;;;;;;16.13;9.73;;;10.30;98.30;;;;;;5225806;22;20451;-81
2021/11/09 08:31:08;;;;;;;13.83;10.10;;;10.30;98.30;;;;;;5217748;22;20418;-80
2021/11/09 08:33:12;;;;;;;15.63;9.57;;;10.40;98.30;;;;;;5217500;22;20423;-81
2021/11/09 08:35:21;;;;;;;15.30;8.80;;;10.50;98.30;;;;;;5217582;22;21018;-80
2021/11/09 08:37:24;;;;;;;10.43;7.53;;;10.60;98.30;;;;;;5217121;22;20477;-81
2021/11/09 08:39:33;;;;;;;12.20;7.13;;;10.60;98.30;;;;;;5225522;22;20428;-81
2021/11/09 08:41:41;;;;;;;13.83;7.70;;;10.50;98.30;;;;;;5217285;22;20489;-80
2021/11/09 08:43:55;;;;;;;14.30;8.67;;;10.60;98.30;;;;;;5225421;22;20430;-80
2021/11/09 08:46:01;;;;;;;10.40;6.60;;;10.50;98.30;;;;;;5217099;22;20438;-81
2021/11/09 08:48:09;;;;;;;9.53;6.50;;;10.60;98.30;;;;;;5216692;22;20534;-80
2021/11/09 08:50:13;;;;;;;11.43;7.43;;;10.70;98.30;;;;;;5225534;22;21009;-81
2021/11/09 08:52:19;;;;;;;13.67;7.60;;;10.70;98.30;;;;;;5217121;22;20426;-80
2021/11/09 08:54:27;;;;;;;12.60;7.00;;;10.70;98.30;;;;;;5217141;22;20429;-80
2021/11/09 08:56:45;;;;;;;17.80;8.30;;;10.80;98.30;;;;;;5225660;22;20402;-80
2021/11/09 09:04:11;;;;;;;10.63;7.57;;;11.00;98.30;;;;;;5217307;22;20435;-80
2021/11/09 09:04:14;;;;;;;19.33;9.07;;;11.10;98.30;;;;;;5217379;22;20426;-81
2021/11/09 09:06:17;;;;;;;18.43;9.70;;;11.20;98.30;;;;;;5216878;22;20433;-81
2021/11/09 09:08:21;;;;;;;14.70;9.10;;;11.10;98.30;;;;;;5216704;22;20655;-80
2021/11/09 09:10:24;;;;;;;20.23;9.90;;;11.00;98.30;;;;;;5225812;22;20423;-80
2021/11/09 09:12:29;;;;;;;26.57;11.40;;;11.10;98.30;;;;;;5217246;22;20461;-80
2021/11/09 09:14:33;;;;;;;20.00;11.00;;;11.20;98.30;;;;;;5216922;22;20431;-80
2021/11/09 09:16:38;;;;;;;17.73;10.17;;;11.10;98.30;;;;;;5217094;22;20422;-80
2021/11/09 09:18:41;;;;;;;21.13;9.70;;;11.10;98.30;;;;;;5216489;22;20457;-80
2021/11/09 09:20:48;;;;;;;22.07;10.77;;;11.30;98.30;;;;;;5217101;22;20506;-80
2021/11/09 09:23:02;;;;;;;20.87;11.20;;;11.50;98.30;;;;;;5225475;22;20426;-81
2021/11/09 09:25:16;;;;;;;15.57;9.17;;;11.50;98.30;;;;;;5225499;22;20731;-81
2021/11/09 09:27:25;;;;;;;20.73;9.83;;;11.80;98.30;;;;;;5216768;22;20454;-81
2021/11/09 09:53:54;;;;;;;21.33;10.70;;;11.90;98.30;;;;;;5218042;22;20985;-81
2021/11/09 09:55:58;;;;;;;20.77;11.57;;;12.00;98.30;;;;;;5218401;22;20733;-80
2021/11/09 09:58:03;;;;;;;22.20;12.17;;;12.00;98.30;;;;;;5217772;22;20452;-80
2021/11/09 10:00:07;;;;;;;18.67;11.13;;;12.00;98.30;;;;;;5217987;22;20509;-80
2021/11/09 10:02:15;;;;;;;18.90;11.53;;;12.00;98.30;;;;;;5218455;22;20437;-80
2021/11/09 10:04:31;;;;;;;24.43;11.43;;;12.00;98.30;;;;;;5226867;22;20420;-80
2021/11/09 10:06:44;;;;;;;19.33;12.10;;;12.10;98.30;;;;;;5217931;22;20459;-80
2021/11/09 10:08:52;;;;;;;21.90;10.17;;;12.20;98.30;;;;;;5218135;22;20516;-81
2021/11/09 10:10:55;;;;;;;20.73;10.77;;;12.30;98.30;;;;;;5218727;22;20437;-80
2021/11/09 10:13:01;;;;;;;19.23;11.33;;;12.20;98.30;;;;;;5218676;22;20502;-80
2021/11/09 10:15:08;;;;;;;17.63;11.80;;;12.10;98.30;;;;;;5227287;22;20490;-80
2021/11/09 10:17:15;;;;;;;21.37;11.37;;;12.30;98.30;;;;;;5226912;22;20498;-81
2021/11/09 10:19:33;;;;;;;28.70;12.03;;;12.50;98.30;;;;;;5218522;22;20833;-80
2021/11/09 10:21:41;;;;;;;19.90;10.33;;;12.60;98.30;;;;;;5218280;22;20428;-80
2021/11/09 10:23:44;;;;;;;19.23;10.70;;;12.60;98.30;;;;;;5218548;22;20808;-80
2021/11/09 10:25:47;;;;;;;26.43;12.03;;;12.50;98.30;;;;;;5218418;22;20450;-80
2021/11/09 10:27:53;;;;;;;18.73;10.80;;;12.50;98.30;;;;;;5226279;22;20534;-80
2021/11/09 10:29:57;;;;;;;15.57;11.03;;;12.80;98.30;;;;;;5218039;22;20510;-80
2021/11/09 10:32:11;;;;;;;23.47;12.57;;;12.80;98.30;;;;;;5226788;22;20429;-80
2021/11/09 10:34:25;;;;;;;16.27;10.47;;;12.90;98.30;;;;;;5217950;22;20512;-80
2021/11/09 10:36:33;;;;;;;14.70;9.23;;;12.90;98.30;;;;;;5226989;22;20418;-80
2021/11/09 10:38:36;;;;;;;14.07;10.10;;;12.70;98.30;;;;;;5226557;22;20434;-80
2021/11/09 10:40:45;;;;;;;20.60;9.60;;;12.70;98.30;;;;;;5218205;22;20559;-80
2021/11/09 10:42:51;;;;;;;17.70;9.93;;;12.80;98.30;;;;;;5217831;22;20428;-80
2021/11/09 10:44:57;;;;;;;14.23;10.17;;;13.00;98.30;;;;;;5226529;22;20911;-80
2021/11/09 10:47:21;;;;;;;12.93;8.33;;;13.20;98.30;;;;;;5217626;22;20473;-80
2021/11/09 10:49:50;;;;;;;23.17;10.80;;;13.10;98.30;;;;;;5217814;22;20460;-80
2021/11/09 10:51:55;;;;;;;17.07;9.90;;;13.00;98.30;;;;;;5218264;22;20415;-80
2021/11/09 10:54:05;;;;;;;18.07;10.33;;;13.00;98.30;;;;;;5218016;22;20745;-80
2021/11/09 10:56:18;;;;;;;16.73;10.50;;;13.10;98.30;;;;;;5227034;22;20451;-80
2021/11/09 10:58:31;;;;;;;16.90;8.63;;;13.30;98.30;;;;;;5217915;22;20499;-80
2021/11/09 11:03:20;;;;;;;19.27;10.10;;;13.40;98.30;;;;;;5191035;22;20473;-80
2021/11/09 11:05:23;;;;;;;19.63;8.77;;;13.50;98.30;;;;;;5217878;22;20910;-80
2021/11/09 11:07:26;;;;;;;21.10;9.03;;;13.70;98.30;;;;;;5225606;22;20448;-80
2021/11/09 11:09:29;;;;;;;14.37;8.70;;;13.90;98.30;;;;;;5217623;22;20455;-80
2021/11/09 11:11:39;;;;;;;21.23;8.90;;;13.90;98.30;;;;;;5217997;22;20496;-80
2021/11/09 11:13:42;;;;;;;13.73;9.10;;;13.90;98.30;;;;;;5217722;22;20436;-80
2021/11/09 11:16:06;;;;;;;15.90;9.47;;;14.00;98.30;;;;;;5217902;22;20435;-80
2021/11/09 11:18:10;;;;;;;19.20;8.30;;;14.00;98.30;;;;;;5225978;22;21014;-80
2021/11/09 11:20:14;;;;;;;16.30;9.60;;;14.10;98.30;;;;;;5217734;22;20436;-80
2021/11/09 11:22:21;;;;;;;17.50;8.90;;;14.20;98.30;;;;;;5226080;22;20415;-80
2021/11/09 11:24:24;;;;;;;20.07;8.53;;;14.60;98.30;;;;;;5217920;22;20418;-80
2021/11/09 11:26:27;;;;;;;16.43;8.33;;;14.30;98.30;;;;;;5217705;22;20432;-80
2021/11/09 11:28:31;;;;;;;17.13;8.67;;;14.30;98.30;;;;;;5217412;22;20446;-80
2021/11/09 11:30:34;;;;;;;21.90;8.33;;;14.50;98.30;;;;;;5226553;22;20421;-80
2021/11/09 11:32:38;;;;;;;18.83;8.57;;;14.60;98.30;;;;;;5217838;22;20495;-80
2021/11/09 11:34:41;;;;;;;17.00;9.20;;;14.90;98.30;;;;;;5218187;22;20426;-81
2021/11/09 11:36:46;;;;;;;16.30;7.77;;;14.90;98.30;;;;;;5226280;22;20413;-80
2021/11/09 11:38:53;;;;;;;17.43;8.70;;;14.90;98.30;;;;;;5217837;22;20422;-80
2021/11/09 11:40:58;;;;;;;16.07;8.80;;;15.20;98.30;;;;;;5217443;22;20426;-81
2021/11/09 11:43:01;;;;;;;16.93;7.50;;;15.70;98.30;;;;;;5226613;22;20477;-80
2021/11/09 11:45:05;;;;;;;14.10;7.43;;;15.80;98.30;;;;;;5217438;22;20505;-80
2021/11/09 11:47:18;;;;;;;15.03;7.40;;;15.60;98.30;;;;;;5217258;22;20450;-80
2021/11/09 11:49:47;;;;;;;15.97;7.60;;;15.60;98.30;;;;;;5217639;22;20492;-80
2021/11/09 11:52:08;;;;;;;14.87;6.90;;;15.50;98.20;;;;;;5217530;22;20456;-81
2021/11/09 11:54:11;;;;;;;15.07;7.93;;;15.00;98.30;;;;;;5218117;22;20418;-81
2021/11/09 11:56:14;;;;;;;21.53;8.27;;;15.20;98.30;;;;;;5217484;22;20440;-81
2021/11/09 11:58:19;;;;;;;10.97;6.90;;;15.50;97.80;;;;;;5216922;22;20849;-81
2021/11/09 12:00:37;;;;;;;9.53;6.97;;;15.20;96.90;;;;;;5225668;22;20441;-81
2021/11/09 12:02:40;;;;;;;16.83;8.60;;;14.90;98.30;;;;;;5226083;22;20425;-81
2021/11/09 12:04:50;;;;;;;10.10;7.37;;;15.00;98.30;;;;;;5217228;22;20483;-81
2021/11/09 12:06:53;;;;;;;15.57;6.93;;;15.20;98.00;;;;;;5225993;22;20402;-81
2021/11/09 12:08:58;;;;;;;19.60;8.90;;;15.70;97.80;;;;;;5216986;22;20525;-81
2021/11/09 12:11:02;;;;;;;16.97;9.50;;;15.90;97.10;;;;;;5217474;22;20426;-81
2021/11/09 12:13:09;;;;;;;14.70;7.83;;;16.50;95.70;;;;;;5217447;22;20434;-81
2021/11/09 12:15:12;;;;;;;18.97;8.23;;;17.20;92.80;;;;;;5217076;22;20429;-81
2021/11/09 12:17:31;;;;;;;17.27;7.43;;;17.00;93.00;;;;;;5225663;22;20936;-81
2021/11/09 12:19:59;;;;;;;14.30;7.40;;;16.80;92.90;;;;;;5225523;22;20493;-81
2021/11/09 12:22:10;;;;;;;13.30;7.90;;;16.70;93.90;;;;;;5217395;22;20406;-81
2021/11/09 12:24:18;;;;;;;17.43;9.30;;;17.10;92.20;;;;;;5218832;22;20414;-81
2021/11/09 12:26:38;;;;;;;13.30;7.70;;;17.00;92.30;;;;;;5216787;22;20425;-81
2021/11/09 12:28:41;;;;;;;17.33;7.87;;;16.80;93.10;;;;;;5216839;22;20446;-81
2021/11/09 12:30:50;;;;;;;14.13;7.43;;;16.90;91.70;;;;;;5217901;22;20426;-81
2021/11/09 12:33:02;;;;;;;15.93;6.80;;;16.50;93.00;;;;;;5217204;22;20479;-81
2021/11/09 12:35:24;;;;;;;19.30;7.77;;;17.00;90.60;;;;;;5216923;22;20452;-81
2021/11/09 12:37:28;;;;;;;16.67;7.57;;;17.10;91.10;;;;;;5225103;22;20491;-81
2021/11/09 12:39:33;;;;;;;13.33;7.20;;;17.40;90.80;;;;;;5216896;22;20811;-81
2021/11/09 12:41:37;;;;;;;13.63;7.37;;;17.50;90.80;;;;;;5216694;22;20442;-81
2021/11/09 12:43:46;;;;;;;13.00;6.77;;;17.50;89.10;;;;;;5224929;22;20426;-81
2021/11/09 12:45:53;;;;;;;13.87;7.63;;;17.30;89.40;;;;;;5216164;22;20406;-81
2021/11/09 12:48:01;;;;;;;12.53;7.23;;;17.90;88.40;;;;;;5224637;22;20465;-81
2021/11/09 12:50:05;;;;;;;9.90;6.13;;;17.50;88.00;;;;;;5216345;22;20428;-80
2021/11/09 12:52:08;;;;;;;14.20;6.60;;;16.90;89.50;;;;;;5216373;22;20453;-81
2021/11/09 12:54:14;;;;;;;13.67;7.43;;;16.50;91.00;;;;;;5216413;22;20422;-81
2021/11/09 12:56:31;;;;;;;16.10;7.07;;;16.30;91.30;;;;;;5216604;22;20440;-81
2021/11/09 12:58:38;;;;;;;14.00;6.67;;;16.40;91.90;;;;;;5216300;22;20450;-81
2021/11/09 13:00:45;;;;;;;10.20;6.97;;;17.10;90.90;;;;;;5216908;22;20406;-81
2021/11/09 13:02:52;;;;;;;13.77;6.80;;;17.60;90.50;;;;;;5225442;22;20787;-81
2021/11/09 13:05:02;;;;;;;10.50;6.70;;;18.00;87.80;;;;;;5216804;22;20406;-81
2021/11/09 13:07:13;;;;;;;15.13;8.57;;;17.90;88.30;;;;;;5216627;22;20525;-81
2021/11/09 13:09:23;;;;;;;12.70;6.80;;;17.20;88.90;;;;;;5225048;22;20455;-81
2021/11/09 13:11:38;;;;;;;14.47;8.50;;;17.00;90.60;;;;;;5217061;22;20406;-81
2021/11/09 13:13:41;;;;;;;11.97;6.90;;;17.20;89.70;;;;;;5225223;22;20935;-81
2021/11/09 13:15:44;;;;;;;11.67;6.70;;;16.90;90.10;;;;;;5216670;22;20426;-81
2021/11/09 13:17:51;;;;;;;15.60;7.93;;;16.90;89.30;;;;;;5224705;22;20495;-81
2021/11/09 13:19:59;;;;;;;16.57;8.10;;;16.50;90.40;;;;;;5216808;22;20426;-81
2021/11/09 13:22:09;;;;;;;15.33;7.67;;;16.60;90.70;;;;;;5217032;22;20496;-81
2021/11/09 13:24:19;;;;;;;16.40;7.97;;;16.90;90.40;;;;;;5216942;22;20406;-81
2021/11/09 13:26:22;;;;;;;23.90;11.13;;;16.40;90.60;;;;;;5218605;22;20433;-81
2021/11/09 13:28:33;;;;;;;18.40;7.80;;;16.20;91.70;;;;;;5217896;22;20768;-81
2021/11/09 13:30:36;;;;;;;15.40;8.20;;;16.40;91.30;;;;;;5218610;22;20445;-81
2021/11/09 13:32:39;;;;;;;14.83;8.37;;;16.80;90.90;;;;;;5218745;22;20456;-81
2021/11/09 13:34:43;;;;;;;14.80;8.37;;;16.90;89.90;;;;;;5218266;22;20417;-81
2021/11/09 13:36:46;;;;;;;16.93;9.10;;;16.60;90.00;;;;;;5218321;22;20449;-81
2021/11/09 13:38:49;;;;;;;18.87;10.00;;;16.30;91.60;;;;;;5218149;22;20450;-81
2021/11/09 13:40:54;;;;;;;14.80;9.50;;;16.10;91.70;;;;;;5218448;22;20512;-81
2021/11/09 13:43:02;;;;;;;16.07;9.37;;;16.00;92.70;;;;;;5218200;22;20418;-81
2021/11/09 13:45:14;;;;;;;17.87;8.60;;;16.40;91.60;;;;;;5218578;22;20520;-81
2021/11/09 13:47:29;;;;;;;14.73;7.77;;;16.40;90.90;;;;;;5218283;22;20446;-81
2021/11/09 13:49:32;;;;;;;16.20;8.27;;;16.20;91.60;;;;;;5218309;22;20489;-81
2021/11/09 13:51:43;;;;;;;16.93;8.20;;;16.20;92.00;;;;;;5218360;22;20953;-81
2021/11/09 13:53:48;;;;;;;17.17;10.37;;;15.90;91.70;;;;;;5218201;22;20417;-81
2021/11/09 13:55:52;;;;;;;15.17;8.80;;;15.50;92.70;;;;;;5218096;22;20453;-81
2021/11/09 13:57:55;;;;;;;10.60;7.10;;;15.70;92.90;;;;;;5218178;22;20499;-81
2021/11/09 14:00:19;;;;;;;16.17;7.63;;;15.70;92.50;;;;;;5218144;22;20454;-81
2021/11/09 14:02:24;;;;;;;9.30;6.43;;;15.60;93.40;;;;;;5218104;22;20442;-81
2021/11/09 14:16:48;;;;;;;13.60;5.60;;;15.30;91.80;;;;;;5139356;23;20820;-81
2021/11/09 14:18:53;;;;;;;16.73;5.43;;;15.30;92.50;;;;;;5192040;22;20461;-81
2021/11/09 14:20:58;;;;;;;12.20;5.80;;;15.70;92.00;;;;;;5228364;22;20485;-80
2021/11/09 14:23:03;;;;;;;11.07;6.17;;;16.10;90.70;;;;;;5240585;22;20430;-80
2021/11/09 14:25:09;;;;;;;11.73;5.50;;;15.60;90.50;;;;;;5232119;22;20407;-80
2021/11/09 14:27:16;;;;;;;8.77;4.93;;;15.20;92.30;;;;;;5239420;22;20449;-81
2021/11/09 14:29:21;;;;;;;8.93;5.27;;;15.50;92.20;;;;;;5233125;22;20429;-80
2021/11/09 14:31:27;;;;;;;10.97;5.60;;;15.50;91.50;;;;;;5232452;22;20477;-81
2021/11/09 14:33:32;;;;;;;13.37;6.20;;;15.60;92.00;;;;;;5228604;22;20740;-80
2021/11/09 14:35:36;;;;;;;9.73;5.93;;;15.80;91.40;;;;;;5223779;22;20449;-81
2021/11/09 14:37:45;;;;;;;9.80;5.37;;;15.70;91.30;;;;;;5231099;22;20951;-80
2021/11/09 14:40:05;;;;;;;11.70;5.00;;;15.30;91.70;;;;;;5222686;22;20445;-80
2021/11/09 14:42:15;;;;;;;11.57;5.43;;;15.20;92.00;;;;;;5222945;22;20487;-80
2021/11/09 14:44:20;;;;;;;8.57;4.77;;;15.10;92.50;;;;;;5222671;22;20407;-80
2021/11/09 14:46:27;;;;;;;9.63;5.43;;;15.10;92.90;;;;;;5222451;22;20512;-80
2021/11/09 14:48:46;;;;;;;14.60;6.10;;;15.00;92.80;;;;;;5222167;22;21034;-81
2021/11/09 14:50:52;;;;;;;11.23;5.30;;;14.80;93.90;;;;;;5223259;22;20474;-81
2021/11/09 14:53:05;;;;;;;8.27;5.23;;;15.00;94.10;;;;;;5222809;22;21222;-81